sensor_id;sensor_type;location;lat;lon;timestamp;P1;durP1;ratioP1;P2;durP2;ratioP2
35803;SDS011;21924;51.934;7.414;2023-12-20T00:00:54;24.08;;;10.35;;
35803;SDS011;21924;51.934;7.414;2023-12-20T00:03:38;23.73;;;10.80;;
35803;SDS011;21924;51.934;7.414;2023-12-20T00:06:23;19.90;;;9.63;;
35803;SDS011;21924;51.934;7.414;2023-12-20T00:09:07;18.63;;;10.15;;
35803;SDS011;21924;51.934;7.414;2023-12-20T00:11:51;23.23;;;9.35;;
35803;SDS011;21924;51.934;7.414;2023-12-20T00:14:35;24.33;;;9.85;;
35803;SDS011;21924;51.934;7.414;2023-12-20T00:17:20;22.95;;;9.73;;
35803;SDS011;21924;51.934;7.414;2023-12-20T00:20:04;30.00;;;11.27;;
35803;SDS011;21924;51.934;7.414;2023-12-20T00:22:50;27.40;;;9.55;;
35803;SDS011;21924;51.934;7.414;2023-12-20T00:25:34;29.33;;;11.27;;
35803;SDS011;21924;51.934;7.414;2023-12-20T00:28:19;19.92;;;10.20;;
35803;SDS011;21924;51.934;7.414;2023-12-20T00:31:03;20.08;;;8.38;;
35803;SDS011;21924;51.934;7.414;2023-12-20T00:33:48;24.88;;;9.82;;
35803;SDS011;21924;51.934;7.414;2023-12-20T00:36:32;21.00;;;8.98;;
35803;SDS011;21924;51.934;7.414;2023-12-20T00:39:16;22.25;;;9.75;;
35803;SDS011;21924;51.934;7.414;2023-12-20T00:42:00;25.25;;;8.40;;
35803;SDS011;21924;51.934;7.414;2023-12-20T00:44:44;22.45;;;8.93;;
35803;SDS011;21924;51.934;7.414;2023-12-20T00:47:28;25.98;;;10.65;;
35803;SDS011;21924;51.934;7.414;2023-12-20T00:50:12;19.85;;;9.32;;
35803;SDS011;21924;51.934;7.414;2023-12-20T00:52:57;17.92;;;9.25;;
35803;SDS011;21924;51.934;7.414;2023-12-20T00:55:41;16.25;;;9.60;;
35803;SDS011;21924;51.934;7.414;2023-12-20T00:58:25;25.92;;;10.68;;
35803;SDS011;21924;51.934;7.414;2023-12-20T01:01:10;14.77;;;8.98;;
35803;SDS011;21924;51.934;7.414;2023-12-20T01:03:56;27.02;;;10.43;;
35803;SDS011;21924;51.934;7.414;2023-12-20T01:06:41;20.20;;;10.13;;
35803;SDS011;21924;51.934;7.414;2023-12-20T01:09:25;24.75;;;11.52;;
35803;SDS011;21924;51.934;7.414;2023-12-20T01:12:12;23.17;;;11.23;;
35803;SDS011;21924;51.934;7.414;2023-12-20T01:14:56;27.77;;;11.48;;
35803;SDS011;21924;51.934;7.414;2023-12-20T01:17:42;36.03;;;12.43;;
35803;SDS011;21924;51.934;7.414;2023-12-20T01:20:26;22.95;;;11.43;;
35803;SDS011;21924;51.934;7.414;2023-12-20T01:23:10;22.60;;;11.20;;
35803;SDS011;21924;51.934;7.414;2023-12-20T01:25:54;33.80;;;11.80;;
35803;SDS011;21924;51.934;7.414;2023-12-20T01:28:39;19.58;;;10.00;;
35803;SDS011;21924;51.934;7.414;2023-12-20T01:31:23;23.30;;;11.15;;
35803;SDS011;21924;51.934;7.414;2023-12-20T01:34:07;22.73;;;11.30;;
35803;SDS011;21924;51.934;7.414;2023-12-20T01:36:51;32.60;;;11.40;;
35803;SDS011;21924;51.934;7.414;2023-12-20T01:39:35;25.08;;;11.05;;
35803;SDS011;21924;51.934;7.414;2023-12-20T01:42:19;31.90;;;11.20;;
35803;SDS011;21924;51.934;7.414;2023-12-20T01:45:04;21.42;;;9.55;;
35803;SDS011;21924;51.934;7.414;2023-12-20T01:47:48;31.52;;;11.48;;
35803;SDS011;21924;51.934;7.414;2023-12-20T01:50:32;30.15;;;9.75;;
35803;SDS011;21924;51.934;7.414;2023-12-20T01:53:23;34.78;;;9.27;;
35803;SDS011;21924;51.934;7.414;2023-12-20T01:56:08;22.67;;;8.32;;
35803;SDS011;21924;51.934;7.414;2023-12-20T01:58:54;26.90;;;9.63;;
35803;SDS011;21924;51.934;7.414;2023-12-20T02:01:40;21.45;;;8.32;;
35803;SDS011;21924;51.934;7.414;2023-12-20T02:04:24;23.65;;;8.75;;
35803;SDS011;21924;51.934;7.414;2023-12-20T02:07:09;17.02;;;8.13;;
35803;SDS011;21924;51.934;7.414;2023-12-20T02:09:55;25.10;;;7.60;;
35803;SDS011;21924;51.934;7.414;2023-12-20T02:12:39;14.38;;;7.55;;
35803;SDS011;21924;51.934;7.414;2023-12-20T02:15:23;23.08;;;8.02;;
35803;SDS011;21924;51.934;7.414;2023-12-20T02:18:08;33.85;;;8.25;;
35803;SDS011;21924;51.934;7.414;2023-12-20T02:20:53;15.50;;;6.45;;
35803;SDS011;21924;51.934;7.414;2023-12-20T02:23:38;21.08;;;6.72;;
35803;SDS011;21924;51.934;7.414;2023-12-20T02:26:22;16.67;;;6.78;;
35803;SDS011;21924;51.934;7.414;2023-12-20T02:29:07;12.43;;;6.05;;
35803;SDS011;21924;51.934;7.414;2023-12-20T02:31:51;16.58;;;6.50;;
35803;SDS011;21924;51.934;7.414;2023-12-20T02:34:35;14.63;;;6.57;;
35803;SDS011;21924;51.934;7.414;2023-12-20T02:37:19;18.20;;;6.65;;
35803;SDS011;21924;51.934;7.414;2023-12-20T02:40:03;14.25;;;5.18;;
35803;SDS011;21924;51.934;7.414;2023-12-20T02:42:48;16.35;;;5.97;;
35803;SDS011;21924;51.934;7.414;2023-12-20T02:45:32;14.43;;;5.85;;
35803;SDS011;21924;51.934;7.414;2023-12-20T02:48:16;16.67;;;6.05;;
35803;SDS011;21924;51.934;7.414;2023-12-20T02:51:01;16.52;;;5.78;;
35803;SDS011;21924;51.934;7.414;2023-12-20T03:01:08;24.98;;;6.70;;
35803;SDS011;21924;51.934;7.414;2023-12-20T03:03:53;19.65;;;6.10;;
35803;SDS011;21924;51.934;7.414;2023-12-20T03:06:37;18.60;;;5.72;;
35803;SDS011;21924;51.934;7.414;2023-12-20T03:09:22;23.52;;;6.97;;
35803;SDS011;21924;51.934;7.414;2023-12-20T03:12:06;21.95;;;6.78;;
35803;SDS011;21924;51.934;7.414;2023-12-20T03:14:50;16.02;;;7.40;;
35803;SDS011;21924;51.934;7.414;2023-12-20T03:17:34;34.17;;;8.40;;
35803;SDS011;21924;51.934;7.414;2023-12-20T03:20:18;29.90;;;6.82;;
35803;SDS011;21924;51.934;7.414;2023-12-20T03:23:03;15.48;;;7.15;;
35803;SDS011;21924;51.934;7.414;2023-12-20T03:25:47;27.45;;;7.38;;
35803;SDS011;21924;51.934;7.414;2023-12-20T03:28:31;19.63;;;7.43;;
35803;SDS011;21924;51.934;7.414;2023-12-20T03:31:15;21.67;;;7.38;;
35803;SDS011;21924;51.934;7.414;2023-12-20T03:33:59;23.55;;;7.55;;
35803;SDS011;21924;51.934;7.414;2023-12-20T03:36:44;17.33;;;7.65;;
35803;SDS011;21924;51.934;7.414;2023-12-20T03:39:28;25.05;;;7.03;;
35803;SDS011;21924;51.934;7.414;2023-12-20T03:42:12;16.02;;;6.22;;
35803;SDS011;21924;51.934;7.414;2023-12-20T03:44:56;16.88;;;7.30;;
35803;SDS011;21924;51.934;7.414;2023-12-20T03:47:40;15.95;;;6.57;;
35803;SDS011;21924;51.934;7.414;2023-12-20T03:50:25;24.00;;;7.40;;
35803;SDS011;21924;51.934;7.414;2023-12-20T03:53:09;22.08;;;6.18;;
35803;SDS011;21924;51.934;7.414;2023-12-20T03:55:53;15.05;;;6.47;;
35803;SDS011;21924;51.934;7.414;2023-12-20T03:58:37;28.23;;;7.47;;
35803;SDS011;21924;51.934;7.414;2023-12-20T04:01:22;14.90;;;6.10;;
35803;SDS011;21924;51.934;7.414;2023-12-20T04:04:06;32.10;;;6.88;;
35803;SDS011;21924;51.934;7.414;2023-12-20T04:06:50;29.02;;;7.05;;
35803;SDS011;21924;51.934;7.414;2023-12-20T04:09:34;19.13;;;7.10;;
35803;SDS011;21924;51.934;7.414;2023-12-20T04:12:19;26.30;;;7.07;;
35803;SDS011;21924;51.934;7.414;2023-12-20T04:15:03;30.08;;;8.15;;
35803;SDS011;21924;51.934;7.414;2023-12-20T04:17:52;22.80;;;7.25;;
35803;SDS011;21924;51.934;7.414;2023-12-20T04:20:36;18.50;;;7.55;;
35803;SDS011;21924;51.934;7.414;2023-12-20T04:23:20;37.95;;;8.35;;
35803;SDS011;21924;51.934;7.414;2023-12-20T04:26:05;27.00;;;8.80;;
35803;SDS011;21924;51.934;7.414;2023-12-20T04:28:49;28.75;;;8.40;;
35803;SDS011;21924;51.934;7.414;2023-12-20T04:31:33;32.72;;;9.98;;
35803;SDS011;21924;51.934;7.414;2023-12-20T04:34:17;31.10;;;8.55;;
35803;SDS011;21924;51.934;7.414;2023-12-20T04:37:01;23.00;;;8.73;;
35803;SDS011;21924;51.934;7.414;2023-12-20T04:42:32;19.08;;;8.32;;
35803;SDS011;21924;51.934;7.414;2023-12-20T04:45:16;44.53;;;9.65;;
35803;SDS011;21924;51.934;7.414;2023-12-20T04:48:02;30.67;;;9.93;;
35803;SDS011;21924;51.934;7.414;2023-12-20T04:50:47;46.38;;;10.95;;
35803;SDS011;21924;51.934;7.414;2023-12-20T04:53:31;27.45;;;10.05;;
35803;SDS011;21924;51.934;7.414;2023-12-20T04:56:16;39.25;;;10.93;;
35803;SDS011;21924;51.934;7.414;2023-12-20T04:59:00;34.50;;;9.30;;
35803;SDS011;21924;51.934;7.414;2023-12-20T05:01:44;41.17;;;10.82;;
35803;SDS011;21924;51.934;7.414;2023-12-20T05:04:28;29.77;;;10.20;;
35803;SDS011;21924;51.934;7.414;2023-12-20T05:07:15;22.20;;;10.57;;
35803;SDS011;21924;51.934;7.414;2023-12-20T05:09:59;28.33;;;8.80;;
35803;SDS011;21924;51.934;7.414;2023-12-20T05:12:44;29.70;;;10.27;;
35803;SDS011;21924;51.934;7.414;2023-12-20T05:15:28;32.33;;;9.38;;
35803;SDS011;21924;51.934;7.414;2023-12-20T05:18:12;40.60;;;10.57;;
35803;SDS011;21924;51.934;7.414;2023-12-20T05:20:57;37.15;;;9.68;;
35803;SDS011;21924;51.934;7.414;2023-12-20T05:23:41;25.17;;;8.32;;
35803;SDS011;21924;51.934;7.414;2023-12-20T05:26:25;25.48;;;10.65;;
35803;SDS011;21924;51.934;7.414;2023-12-20T05:29:10;22.40;;;9.07;;
35803;SDS011;21924;51.934;7.414;2023-12-20T05:31:54;31.83;;;8.88;;
35803;SDS011;21924;51.934;7.414;2023-12-20T05:34:38;21.83;;;7.97;;
35803;SDS011;21924;51.934;7.414;2023-12-20T05:37:22;26.88;;;9.20;;
35803;SDS011;21924;51.934;7.414;2023-12-20T05:40:09;36.92;;;8.77;;
35803;SDS011;21924;51.934;7.414;2023-12-20T05:42:53;26.05;;;8.07;;
35803;SDS011;21924;51.934;7.414;2023-12-20T05:45:38;22.77;;;8.55;;
35803;SDS011;21924;51.934;7.414;2023-12-20T05:48:22;28.88;;;8.13;;
35803;SDS011;21924;51.934;7.414;2023-12-20T05:51:06;39.05;;;9.15;;
35803;SDS011;21924;51.934;7.414;2023-12-20T05:53:51;36.05;;;8.18;;
35803;SDS011;21924;51.934;7.414;2023-12-20T05:56:35;15.45;;;7.00;;
35803;SDS011;21924;51.934;7.414;2023-12-20T05:59:19;28.98;;;7.97;;
35803;SDS011;21924;51.934;7.414;2023-12-20T06:02:04;21.02;;;8.02;;
35803;SDS011;21924;51.934;7.414;2023-12-20T06:04:49;26.65;;;7.88;;
35803;SDS011;21924;51.934;7.414;2023-12-20T06:07:33;26.60;;;8.23;;
35803;SDS011;21924;51.934;7.414;2023-12-20T06:10:20;29.08;;;6.60;;
35803;SDS011;21924;51.934;7.414;2023-12-20T06:13:05;35.00;;;8.02;;
35803;SDS011;21924;51.934;7.414;2023-12-20T06:15:50;25.77;;;7.00;;
35803;SDS011;21924;51.934;7.414;2023-12-20T06:18:35;31.50;;;7.30;;
35803;SDS011;21924;51.934;7.414;2023-12-20T06:21:20;24.95;;;7.50;;
35803;SDS011;21924;51.934;7.414;2023-12-20T06:24:05;26.75;;;7.80;;
35803;SDS011;21924;51.934;7.414;2023-12-20T06:26:49;40.05;;;7.78;;
35803;SDS011;21924;51.934;7.414;2023-12-20T06:29:33;21.20;;;6.68;;
35803;SDS011;21924;51.934;7.414;2023-12-20T06:32:18;17.70;;;7.25;;
35803;SDS011;21924;51.934;7.414;2023-12-20T06:35:03;26.08;;;6.68;;
35803;SDS011;21924;51.934;7.414;2023-12-20T06:37:48;20.83;;;5.80;;
35803;SDS011;21924;51.934;7.414;2023-12-20T06:40:32;29.45;;;7.50;;
35803;SDS011;21924;51.934;7.414;2023-12-20T06:43:16;25.10;;;6.65;;
35803;SDS011;21924;51.934;7.414;2023-12-20T06:46:01;27.65;;;6.93;;
35803;SDS011;21924;51.934;7.414;2023-12-20T06:48:45;21.02;;;6.03;;
35803;SDS011;21924;51.934;7.414;2023-12-20T06:51:29;28.40;;;6.75;;
35803;SDS011;21924;51.934;7.414;2023-12-20T06:54:14;19.10;;;7.78;;
35803;SDS011;21924;51.934;7.414;2023-12-20T06:56:58;20.13;;;6.68;;
35803;SDS011;21924;51.934;7.414;2023-12-20T06:59:42;21.95;;;7.13;;
35803;SDS011;21924;51.934;7.414;2023-12-20T07:02:27;18.42;;;7.53;;
35803;SDS011;21924;51.934;7.414;2023-12-20T07:05:16;17.33;;;6.40;;
35803;SDS011;21924;51.934;7.414;2023-12-20T07:08:03;16.50;;;6.30;;
35803;SDS011;21924;51.934;7.414;2023-12-20T07:10:48;16.40;;;6.40;;
35803;SDS011;21924;51.934;7.414;2023-12-20T07:13:32;21.52;;;6.05;;
35803;SDS011;21924;51.934;7.414;2023-12-20T07:16:17;12.77;;;6.45;;
35803;SDS011;21924;51.934;7.414;2023-12-20T07:19:01;23.25;;;6.95;;
35803;SDS011;21924;51.934;7.414;2023-12-20T07:21:45;17.85;;;5.90;;
35803;SDS011;21924;51.934;7.414;2023-12-20T07:24:29;15.00;;;5.78;;
35803;SDS011;21924;51.934;7.414;2023-12-20T07:27:13;21.48;;;6.25;;
35803;SDS011;21924;51.934;7.414;2023-12-20T07:29:57;37.28;;;7.32;;
35803;SDS011;21924;51.934;7.414;2023-12-20T07:32:42;29.02;;;7.78;;
35803;SDS011;21924;51.934;7.414;2023-12-20T07:35:26;29.02;;;7.68;;
35803;SDS011;21924;51.934;7.414;2023-12-20T07:38:10;23.77;;;7.18;;
35803;SDS011;21924;51.934;7.414;2023-12-20T07:40:56;22.73;;;8.07;;
35803;SDS011;21924;51.934;7.414;2023-12-20T07:43:42;23.48;;;6.05;;
35803;SDS011;21924;51.934;7.414;2023-12-20T07:46:26;26.98;;;6.55;;
35803;SDS011;21924;51.934;7.414;2023-12-20T07:49:10;26.70;;;7.57;;
35803;SDS011;21924;51.934;7.414;2023-12-20T07:51:57;19.95;;;6.43;;
35803;SDS011;21924;51.934;7.414;2023-12-20T07:54:41;34.85;;;7.47;;
35803;SDS011;21924;51.934;7.414;2023-12-20T07:57:28;34.50;;;7.88;;
35803;SDS011;21924;51.934;7.414;2023-12-20T08:00:14;25.13;;;7.35;;
35803;SDS011;21924;51.934;7.414;2023-12-20T08:02:58;29.42;;;9.07;;
35803;SDS011;21924;51.934;7.414;2023-12-20T08:05:42;18.65;;;8.77;;
35803;SDS011;21924;51.934;7.414;2023-12-20T08:08:27;24.50;;;7.38;;
35803;SDS011;21924;51.934;7.414;2023-12-20T08:11:12;21.65;;;8.13;;
35803;SDS011;21924;51.934;7.414;2023-12-20T08:13:56;25.17;;;8.82;;
35803;SDS011;21924;51.934;7.414;2023-12-20T08:16:40;26.05;;;8.65;;
35803;SDS011;21924;51.934;7.414;2023-12-20T08:19:24;31.88;;;8.50;;
35803;SDS011;21924;51.934;7.414;2023-12-20T08:22:08;30.65;;;8.63;;
35803;SDS011;21924;51.934;7.414;2023-12-20T08:24:53;21.45;;;7.55;;
35803;SDS011;21924;51.934;7.414;2023-12-20T08:27:39;31.98;;;8.40;;
35803;SDS011;21924;51.934;7.414;2023-12-20T08:30:25;24.98;;;9.30;;
35803;SDS011;21924;51.934;7.414;2023-12-20T08:33:11;32.20;;;9.48;;
35803;SDS011;21924;51.934;7.414;2023-12-20T08:35:56;43.97;;;9.10;;
35803;SDS011;21924;51.934;7.414;2023-12-20T08:38:41;25.80;;;8.77;;
35803;SDS011;21924;51.934;7.414;2023-12-20T08:41:25;26.60;;;7.50;;
35803;SDS011;21924;51.934;7.414;2023-12-20T08:44:09;33.53;;;9.77;;
35803;SDS011;21924;51.934;7.414;2023-12-20T08:46:54;29.40;;;7.70;;
35803;SDS011;21924;51.934;7.414;2023-12-20T08:49:40;31.25;;;8.05;;
35803;SDS011;21924;51.934;7.414;2023-12-20T08:52:25;22.25;;;7.90;;
35803;SDS011;21924;51.934;7.414;2023-12-20T08:55:10;36.22;;;8.18;;
35803;SDS011;21924;51.934;7.414;2023-12-20T08:57:55;28.17;;;8.95;;
35803;SDS011;21924;51.934;7.414;2023-12-20T09:00:39;30.15;;;7.07;;
35803;SDS011;21924;51.934;7.414;2023-12-20T09:03:24;26.98;;;8.20;;
35803;SDS011;21924;51.934;7.414;2023-12-20T09:06:08;25.35;;;9.00;;
35803;SDS011;21924;51.934;7.414;2023-12-20T09:08:52;24.70;;;8.27;;
35803;SDS011;21924;51.934;7.414;2023-12-20T09:11:36;24.08;;;7.60;;
35803;SDS011;21924;51.934;7.414;2023-12-20T09:14:20;19.45;;;7.65;;
35803;SDS011;21924;51.934;7.414;2023-12-20T09:17:04;17.95;;;7.43;;
35803;SDS011;21924;51.934;7.414;2023-12-20T09:19:50;20.47;;;7.63;;
35803;SDS011;21924;51.934;7.414;2023-12-20T09:22:36;19.23;;;6.65;;
35803;SDS011;21924;51.934;7.414;2023-12-20T09:25:22;21.23;;;7.75;;
35803;SDS011;21924;51.934;7.414;2023-12-20T09:28:07;27.55;;;8.15;;
35803;SDS011;21924;51.934;7.414;2023-12-20T09:30:51;25.27;;;7.70;;
35803;SDS011;21924;51.934;7.414;2023-12-20T09:33:35;23.05;;;7.82;;
35803;SDS011;21924;51.934;7.414;2023-12-20T09:36:19;32.33;;;7.90;;
35803;SDS011;21924;51.934;7.414;2023-12-20T09:39:03;27.42;;;7.22;;
35803;SDS011;21924;51.934;7.414;2023-12-20T09:41:59;23.52;;;7.53;;
35803;SDS011;21924;51.934;7.414;2023-12-20T09:44:46;28.63;;;6.95;;
35803;SDS011;21924;51.934;7.414;2023-12-20T09:47:31;19.92;;;6.88;;
35803;SDS011;21924;51.934;7.414;2023-12-20T09:50:17;33.35;;;7.45;;
35803;SDS011;21924;51.934;7.414;2023-12-20T09:53:03;13.90;;;6.78;;
35803;SDS011;21924;51.934;7.414;2023-12-20T09:55:52;19.98;;;6.85;;
35803;SDS011;21924;51.934;7.414;2023-12-20T09:58:37;13.55;;;6.25;;
35803;SDS011;21924;51.934;7.414;2023-12-20T10:01:26;23.17;;;6.18;;
35803;SDS011;21924;51.934;7.414;2023-12-20T10:04:12;15.52;;;6.28;;
35803;SDS011;21924;51.934;7.414;2023-12-20T10:06:57;23.27;;;6.03;;
35803;SDS011;21924;51.934;7.414;2023-12-20T10:09:46;17.88;;;5.13;;
35803;SDS011;21924;51.934;7.414;2023-12-20T10:12:31;25.70;;;6.85;;
35803;SDS011;21924;51.934;7.414;2023-12-20T10:15:15;27.48;;;5.75;;
35803;SDS011;21924;51.934;7.414;2023-12-20T10:17:59;21.58;;;5.22;;
35803;SDS011;21924;51.934;7.414;2023-12-20T10:20:45;23.60;;;6.95;;
35803;SDS011;21924;51.934;7.414;2023-12-20T10:23:30;12.27;;;6.40;;
35803;SDS011;21924;51.934;7.414;2023-12-20T10:26:27;22.20;;;6.40;;
35803;SDS011;21924;51.934;7.414;2023-12-20T10:29:11;21.35;;;5.75;;
35803;SDS011;21924;51.934;7.414;2023-12-20T10:31:55;19.75;;;5.90;;
35803;SDS011;21924;51.934;7.414;2023-12-20T10:34:41;20.25;;;4.82;;
35803;SDS011;21924;51.934;7.414;2023-12-20T10:37:25;17.80;;;5.60;;
35803;SDS011;21924;51.934;7.414;2023-12-20T10:40:09;15.68;;;5.82;;
35803;SDS011;21924;51.934;7.414;2023-12-20T10:42:56;17.05;;;5.57;;
35803;SDS011;21924;51.934;7.414;2023-12-20T10:48:27;19.77;;;5.82;;
35803;SDS011;21924;51.934;7.414;2023-12-20T10:51:15;27.48;;;6.72;;
35803;SDS011;21924;51.934;7.414;2023-12-20T10:54:01;18.50;;;5.53;;
35803;SDS011;21924;51.934;7.414;2023-12-20T10:56:47;25.67;;;7.10;;
35803;SDS011;21924;51.934;7.414;2023-12-20T10:59:36;17.80;;;6.05;;
35803;SDS011;21924;51.934;7.414;2023-12-20T11:02:21;24.00;;;6.75;;
35803;SDS011;21924;51.934;7.414;2023-12-20T11:08:32;21.02;;;6.38;;
35803;SDS011;21924;51.934;7.414;2023-12-20T11:17:27;18.75;;;6.07;;
35803;SDS011;21924;51.934;7.414;2023-12-20T11:20:11;12.02;;;5.32;;
35803;SDS011;21924;51.934;7.414;2023-12-20T11:22:57;16.77;;;6.53;;
35803;SDS011;21924;51.934;7.414;2023-12-20T11:25:55;20.13;;;6.07;;
35803;SDS011;21924;51.934;7.414;2023-12-20T11:28:42;16.58;;;5.32;;
35803;SDS011;21924;51.934;7.414;2023-12-20T11:31:26;19.33;;;5.22;;
35803;SDS011;21924;51.934;7.414;2023-12-20T11:34:14;10.95;;;5.30;;
35803;SDS011;21924;51.934;7.414;2023-12-20T11:37:02;16.35;;;5.95;;
35803;SDS011;21924;51.934;7.414;2023-12-20T11:39:56;23.23;;;5.95;;
35803;SDS011;21924;51.934;7.414;2023-12-20T11:42:45;14.15;;;6.00;;
35803;SDS011;21924;51.934;7.414;2023-12-20T11:45:32;28.33;;;6.70;;
35803;SDS011;21924;51.934;7.414;2023-12-20T11:48:18;31.98;;;6.72;;
35803;SDS011;21924;51.934;7.414;2023-12-20T11:51:02;13.65;;;6.78;;
35803;SDS011;21924;51.934;7.414;2023-12-20T11:53:52;16.10;;;6.00;;
35803;SDS011;21924;51.934;7.414;2023-12-20T11:56:37;33.63;;;7.22;;
35803;SDS011;21924;51.934;7.414;2023-12-20T11:59:21;22.05;;;5.82;;
35803;SDS011;21924;51.934;7.414;2023-12-20T12:02:05;21.05;;;6.45;;
35803;SDS011;21924;51.934;7.414;2023-12-20T12:04:49;17.65;;;6.15;;
35803;SDS011;21924;51.934;7.414;2023-12-20T12:07:36;16.23;;;4.80;;
35803;SDS011;21924;51.934;7.414;2023-12-20T12:10:21;15.68;;;5.15;;
35803;SDS011;21924;51.934;7.414;2023-12-20T12:13:06;13.98;;;5.15;;
35803;SDS011;21924;51.934;7.414;2023-12-20T12:15:50;19.25;;;5.85;;
35803;SDS011;21924;51.934;7.414;2023-12-20T12:18:35;17.95;;;6.07;;
35803;SDS011;21924;51.934;7.414;2023-12-20T12:21:20;21.10;;;6.10;;
35803;SDS011;21924;51.934;7.414;2023-12-20T12:24:08;21.65;;;7.05;;
35803;SDS011;21924;51.934;7.414;2023-12-20T12:26:53;12.02;;;5.80;;
35803;SDS011;21924;51.934;7.414;2023-12-20T12:29:59;18.02;;;5.28;;
35803;SDS011;21924;51.934;7.414;2023-12-20T12:32:45;31.67;;;6.68;;
35803;SDS011;21924;51.934;7.414;2023-12-20T12:35:30;24.52;;;6.15;;
35803;SDS011;21924;51.934;7.414;2023-12-20T12:38:14;22.65;;;6.40;;
35803;SDS011;21924;51.934;7.414;2023-12-20T12:41:00;18.60;;;5.30;;
35803;SDS011;21924;51.934;7.414;2023-12-20T12:43:44;22.08;;;5.45;;
35803;SDS011;21924;51.934;7.414;2023-12-20T12:46:28;24.65;;;5.68;;
35803;SDS011;21924;51.934;7.414;2023-12-20T12:49:12;16.50;;;6.20;;
35803;SDS011;21924;51.934;7.414;2023-12-20T12:51:56;16.63;;;5.95;;
35803;SDS011;21924;51.934;7.414;2023-12-20T12:54:42;18.15;;;6.95;;
35803;SDS011;21924;51.934;7.414;2023-12-20T12:57:28;16.38;;;5.55;;
35803;SDS011;21924;51.934;7.414;2023-12-20T13:00:12;32.85;;;6.55;;
35803;SDS011;21924;51.934;7.414;2023-12-20T13:02:57;12.38;;;4.50;;
35803;SDS011;21924;51.934;7.414;2023-12-20T13:05:41;20.15;;;5.38;;
35803;SDS011;21924;51.934;7.414;2023-12-20T13:08:26;18.63;;;5.68;;
35803;SDS011;21924;51.934;7.414;2023-12-20T13:11:12;22.52;;;4.90;;
35803;SDS011;21924;51.934;7.414;2023-12-20T13:13:56;23.85;;;5.53;;
35803;SDS011;21924;51.934;7.414;2023-12-20T13:16:41;21.25;;;6.13;;
35803;SDS011;21924;51.934;7.414;2023-12-20T13:19:26;11.98;;;5.10;;
35803;SDS011;21924;51.934;7.414;2023-12-20T13:36:58;17.42;;;4.93;;
35803;SDS011;21924;51.934;7.414;2023-12-20T14:49:52;23.88;;;5.78;;
35803;SDS011;21924;51.934;7.414;2023-12-20T19:19:06;34.60;;;15.60;;
35803;SDS011;21924;51.934;7.414;2023-12-20T19:21:54;32.00;;;16.50;;
35803;SDS011;21924;51.934;7.414;2023-12-20T19:28:22;24.48;;;14.82;;
35803;SDS011;21924;51.934;7.414;2023-12-20T19:31:24;25.60;;;13.75;;
35803;SDS011;21924;51.934;7.414;2023-12-20T19:34:56;32.15;;;13.63;;
35803;SDS011;21924;51.934;7.414;2023-12-20T19:38:10;28.13;;;12.90;;
35803;SDS011;21924;51.934;7.414;2023-12-20T19:41:03;27.38;;;14.25;;
35803;SDS011;21924;51.934;7.414;2023-12-20T19:44:06;29.40;;;14.25;;
35803;SDS011;21924;51.934;7.414;2023-12-20T19:51:14;30.80;;;13.38;;
35803;SDS011;21924;51.934;7.414;2023-12-20T20:43:49;24.88;;;13.20;;
35803;SDS011;21924;51.934;7.414;2023-12-20T22:12:45;33.22;;;16.48;;
35803;SDS011;21924;51.934;7.414;2023-12-20T23:06:49;28.30;;;15.35;;
35803;SDS011;21924;51.934;7.414;2023-12-20T23:16:54;25.42;;;15.27;;
35803;SDS011;21924;51.934;7.414;2023-12-20T23:34:23;33.70;;;16.27;;
35803;SDS011;21924;51.934;7.414;2023-12-20T23:37:07;28.52;;;15.73;;
35803;SDS011;21924;51.934;7.414;2023-12-20T23:39:55;28.67;;;15.50;;
35803;SDS011;21924;51.934;7.414;2023-12-20T23:42:39;29.42;;;14.73;;
35803;SDS011;21924;51.934;7.414;2023-12-20T23:45:23;26.70;;;14.68;;
35803;SDS011;21924;51.934;7.414;2023-12-20T23:48:07;22.65;;;13.93;;
35803;SDS011;21924;51.934;7.414;2023-12-20T23:50:52;22.63;;;14.68;;
35803;SDS011;21924;51.934;7.414;2023-12-20T23:53:36;27.20;;;13.95;;
35803;SDS011;21924;51.934;7.414;2023-12-20T23:56:20;25.15;;;13.75;;
35803;SDS011;21924;51.934;7.414;2023-12-20T23:59:04;30.63;;;13.65;;
